Latest Weather Observations for McCluer Island

IDD60801

Issued at 3:35 pm CST Wednesday 22 October 2014 (issued every 30 minutes, with the page automatically refreshed every 10 minutes)

About weather observations | Map of weather stations | Latest weather observations for NT | Other Formats
Station Details ID: 014274 Name: MCCLUER ISLAND Lat: -11.05 Lon: 132.98 Height: 1.4 m
Data from the previous 72 hours. | See also: Recent months at McCluer Island
Date/Time
CST
Temp
°C
App
Temp
°C
Dew
Point
Rel
Hum
%
Delta-T
°C
Wind Press
QNH
hPa
Press
MSL
hPa
Rain
since 9 am
mm
Dir
 
Spd
km/h
Gust
km/h
Spd
kts
Gust
kts
22/03:30pm 28.6 30.0 26.0 86 1.8 E 30 35 16 19 1010.8 - 0.0
22/03:00pm 29.0 31.2 26.6 87 1.7 E 28 32 15 17 1011.2 1011.2 0.0
22/02:30pm 28.9 31.1 25.5 82 2.4 E 24 28 13 15 1011.5 - 0.0
22/02:00pm 29.1 32.0 25.9 83 2.3 E 22 24 12 13 1011.8 - 0.0
22/01:30pm 28.9 30.9 25.7 83 2.3 E 26 28 14 15 1012.2 - 0.0
22/01:00pm 28.5 30.5 25.7 85 2.0 E 26 30 14 16 1012.8 - 0.0
22/12:30pm 29.2 32.1 26.6 86 1.9 E 24 28 13 15 1013.2 - 0.0
22/12:00pm 29.6 32.2 26.6 84 2.1 E 26 30 14 16 1013.7 1013.7 0.0
22/11:30am 29.0 32.2 26.4 86 1.9 E 22 26 12 14 1014.2 - 0.0
22/11:00am 28.8 31.7 26.0 85 2.0 E 22 26 12 14 1014.7 - 0.0
22/10:30am 28.6 32.0 26.2 87 1.7 E 20 24 11 13 1014.8 - 0.0
22/10:00am 29.1 33.7 27.1 89 1.4 E 17 20 9 11 1015.0 - 0.0
22/09:30am 28.1 32.2 26.3 90 1.3 ENE 17 20 9 11 1015.0 - 0.0
22/09:00am 27.9 31.9 26.7 93 0.9 ENE 19 20 10 11 1014.8 1014.8 0.0
22/08:30am 27.3 30.3 26.1 93 0.8 ENE 22 26 12 14 1014.7 - 0.0
22/08:00am 27.3 29.8 25.9 92 1.0 ENE 24 32 13 17 1014.3 - 0.0
22/07:30am 27.3 29.7 26.4 95 0.6 ENE 26 33 14 18 1013.9 - 0.0
22/07:00am 27.1 28.8 26.4 96 0.5 ENE 30 33 16 18 1013.6 - 0.0
22/06:30am 26.7 28.1 26.0 96 0.5 ENE 30 33 16 18 1013.1 - 0.0
22/06:00am 26.8 28.8 26.3 97 0.4 E 28 32 15 17 1013.1 1013.1 0.0
22/05:30am 26.8 28.8 26.3 97 0.4 ENE 28 32 15 17 1012.7 - 0.0
22/05:00am 26.9 28.8 26.2 96 0.5 E 28 32 15 17 1012.7 - 0.0
22/04:30am 27.0 29.1 26.5 97 0.4 E 28 32 15 17 1012.7 - 0.0
22/04:00am 26.9 28.6 26.4 97 0.4 E 30 35 16 19 1012.5 - 0.0
22/03:30am 27.0 28.2 26.3 96 0.5 E 32 37 17 20 1012.4 - 0.0
22/03:00am 27.1 29.0 26.8 98 0.2 E 30 35 16 19 1012.4 1012.4 0.0
22/02:30am 27.0 29.0 26.3 96 0.5 E 28 32 15 17 1012.7 - 0.0
22/02:00am 26.8 29.0 26.1 96 0.5 E 26 30 14 16 1013.1 - 0.0
22/01:30am 27.1 29.8 26.8 98 0.2 E 26 30 14 16 1013.3 - 0.0
22/01:00am 27.0 30.0 26.7 98 0.2 ENE 24 28 13 15 1013.5 - 0.0
22/12:30am 27.2 30.2 26.7 97 0.4 ENE 24 28 13 15 1013.7 - 0.0
22/12:00am 27.3 30.8 26.8 97 0.4 NE 22 26 12 14 1013.7 1013.7 0.0
 
Date/Time
CST
Temp
°C
App
Temp
°C
Dew
Point
Rel
Hum
%
Delta-T
°C
Wind Press
QNH
hPa
Press
MSL
hPa
Rain
since 9 am
mm
Dir
 
Spd
km/h
Gust
km/h
Spd
kts
Gust
kts
21/11:30pm 27.5 30.7 27.0 97 0.4 NE 24 28 13 15 1013.9 - 0.0
21/11:00pm 27.5 30.1 26.6 95 0.6 NE 26 32 14 17 1014.0 - 0.0
21/10:30pm 27.5 30.4 26.6 95 0.6 NE 24 30 13 16 1014.1 - 0.0
21/10:00pm 27.6 30.5 26.5 94 0.8 NE 24 28 13 15 1014.0 - 0.0
21/09:30pm 27.7 30.4 26.8 95 0.6 NE 26 30 14 16 1013.7 - 0.0
21/09:00pm 27.6 30.1 26.5 94 0.8 NE 26 33 14 18 1013.4 1013.4 0.0
21/08:30pm 27.4 28.4 26.3 94 0.8 NE 33 41 18 22 1013.0 - 0.0
21/08:00pm 27.8 28.7 27.3 97 0.4 ENE 37 41 20 22 1012.5 - 0.0
21/07:30pm 27.5 28.0 26.6 95 0.6 ENE 37 43 20 23 1012.2 - 0.0
21/07:00pm 27.7 28.3 26.8 95 0.6 ENE 37 43 20 23 1012.0 - 0.0
21/06:30pm 27.7 28.2 26.6 94 0.8 ENE 37 43 20 23 1012.0 - 0.0
21/06:00pm 27.8 28.7 26.7 94 0.8 ENE 35 41 19 22 1011.8 1011.8 0.0
21/05:30pm 27.5 28.3 25.9 91 1.1 ENE 33 39 18 21 1011.8 - 0.0
21/05:00pm 27.7 28.8 26.1 91 1.1 ENE 32 37 17 20 1011.6 - 0.0
21/04:30pm 27.8 28.8 26.0 90 1.3 ENE 32 35 17 19 1011.6 - 0.0
21/04:00pm 28.5 30.5 26.9 91 1.1 ENE 30 33 16 18 1011.6 - 0.0
21/03:30pm 28.1 29.4 25.3 85 2.0 ENE 28 32 15 17 1011.8 - 0.0
21/03:00pm 28.2 30.1 25.0 83 2.2 E 24 28 13 15 1012.2 1012.2 0.0
21/02:30pm 28.6 30.7 25.4 83 2.3 E 24 30 13 16 1012.5 - 0.0
21/02:00pm 29.1 31.4 25.7 82 2.4 E 24 28 13 15 1013.0 - 0.0
21/01:30pm 29.3 31.9 25.5 80 2.7 E 22 26 12 14 1013.4 - 0.0
21/01:00pm 29.4 32.4 25.6 80 2.7 E 20 24 11 13 1013.8 - 0.0
21/12:30pm 29.6 33.1 26.0 81 2.6 E 19 22 10 12 1014.3 - 0.0
21/12:00pm 28.4 31.2 25.2 83 2.2 E 20 24 11 13 1014.7 1014.7 0.0
21/11:30am 28.7 31.5 25.3 82 2.4 E 20 24 11 13 1015.1 - 0.0
21/11:00am 28.1 30.1 25.1 84 2.1 E 24 28 13 15 1015.2 - 0.0
21/10:30am 28.2 30.3 25.4 85 2.0 ENE 24 28 13 15 1015.2 - 0.0
21/10:00am 27.8 29.2 24.8 84 2.1 ENE 26 30 14 16 1015.2 - 0.0
21/09:30am 27.9 29.5 25.1 85 2.0 ENE 26 32 14 17 1015.1 - 0.0
21/09:00am 27.7 29.3 25.7 89 1.4 ENE 28 32 15 17 1014.9 1014.9 0.0
21/08:30am 27.3 28.1 25.1 88 1.5 ENE 30 33 16 18 1014.7 - 0.0
21/08:00am 26.8 27.1 24.8 89 1.4 ENE 32 35 17 19 1014.3 - 0.0
21/07:30am 26.7 27.8 24.9 90 1.3 E 28 32 15 17 1014.5 - 0.0
21/07:00am 26.5 26.9 24.5 89 1.4 E 30 35 16 19 1014.3 - 0.0
21/06:30am 26.6 26.7 24.6 89 1.4 E 32 35 17 19 1014.0 - 0.0
21/06:00am 26.4 26.4 24.4 89 1.4 E 32 39 17 21 1013.7 1013.7 0.0
21/05:30am 26.3 26.4 24.9 92 1.0 E 33 39 18 21 1013.4 - 0.0
21/05:00am 26.5 26.1 24.7 90 1.2 E 35 41 19 22 1013.2 - 0.0
21/04:30am 27.0 26.9 25.2 90 1.3 E 35 39 19 21 1012.8 - 0.0
21/04:00am 27.2 28.0 25.6 91 1.1 E 32 37 17 20 1012.9 - 0.0
21/03:30am 27.3 26.9 25.3 89 1.4 E 37 41 20 22 1012.8 - 0.0
21/03:00am 26.7 26.5 24.4 87 1.6 E 33 39 18 21 1012.8 1012.8 0.0
21/02:30am 26.9 27.1 25.1 90 1.3 E 33 37 18 20 1013.1 - 0.0
21/02:00am 27.2 28.2 25.4 90 1.3 E 30 33 16 18 1013.2 - 0.0
21/01:30am 27.1 28.1 24.7 87 1.7 ENE 28 33 15 18 1013.1 - 0.0
21/01:00am 27.4 28.8 25.4 89 1.4 E 28 32 15 17 1013.5 - 0.0
21/12:30am 27.6 29.0 26.0 91 1.1 ENE 30 33 16 18 1013.7 - 0.0
21/12:00am 27.6 29.1 26.2 92 1.0 E 30 33 16 18 1013.7 1013.7 0.0
 
Date/Time
CST
Temp
°C
App
Temp
°C
Dew
Point
Rel
Hum
%
Delta-T
°C
Wind Press
QNH
hPa
Press
MSL
hPa
Rain
since 9 am
mm
Dir
 
Spd
km/h
Gust
km/h
Spd
kts
Gust
kts
20/11:30pm 27.2 28.1 25.8 92 1.0 ENE 32 37 17 20 1014.0 - 0.0
20/11:00pm 27.3 28.4 26.2 94 0.8 E 32 37 17 20 1014.0 - 0.0
20/10:30pm 27.4 28.4 26.3 94 0.8 ENE 33 37 18 20 1013.7 - 0.0
20/10:00pm 27.6 29.6 26.4 93 0.9 NE 28 32 15 17 1013.2 - 0.0
20/09:30pm 27.6 28.6 26.2 92 1.0 NE 33 37 18 20 1012.9 - 0.0
20/09:00pm 27.4 28.3 25.8 91 1.1 ENE 32 35 17 19 1012.8 1012.8 0.0
20/08:30pm 27.4 27.1 25.4 89 1.4 NE 37 41 20 22 1012.1 - 0.0
20/08:00pm 27.5 27.9 25.3 88 1.5 NE 33 39 18 21 1011.6 - 0.0
20/07:30pm 27.5 29.2 25.3 88 1.5 ENE 26 30 14 16 1011.6 - 0.0
20/07:00pm 27.6 29.2 25.8 90 1.3 ENE 28 32 15 17 1011.4 - 0.0
20/06:30pm 27.6 29.8 26.0 91 1.1 ENE 26 30 14 16 1011.2 - 0.0
20/06:00pm 27.3 28.6 26.4 95 0.6 ENE 32 35 17 19 1011.0 1011.0 0.0
20/05:30pm 27.6 28.5 25.8 90 1.3 E 32 37 17 20 1010.8 - 0.0
20/05:00pm 27.8 28.5 25.8 89 1.4 E 33 39 18 21 1010.7 - 0.0
20/04:30pm 28.0 27.9 25.8 88 1.6 E 37 41 20 22 1010.7 - 0.0
20/04:00pm 27.9 28.8 25.3 86 1.8 E 30 35 16 19 1010.7 - 0.0
20/03:30pm 28.1 29.0 25.3 85 2.0 E 30 33 16 18 1011.0 - 0.0
20/03:00pm 28.4 29.0 24.8 81 2.5 E 30 33 16 18 1011.3 1011.3 0.0
20/02:30pm 28.3 29.6 25.3 84 2.1 E 28 32 15 17 1011.5 - 0.0
20/02:00pm 28.6 30.1 25.6 84 2.1 E 28 33 15 18 1011.9 - 0.0
20/01:30pm 28.5 29.1 25.3 83 2.2 E 32 35 17 19 1012.2 - 0.0
20/01:00pm 28.4 28.7 24.8 81 2.5 E 32 35 17 19 1012.7 - 0.0
20/12:30pm 28.2 29.5 25.2 84 2.1 E 28 32 15 17 1013.2 - 0.0
20/12:00pm 28.3 29.2 25.3 84 2.1 E 30 35 16 19 1013.8 1013.8 0.0
20/11:30am 28.3 29.1 25.1 83 2.2 E 30 33 16 18 1014.3 - 0.0
20/11:00am 28.5 28.7 24.7 80 2.7 E 32 37 17 20 1014.4 - 0.0
20/10:30am 28.5 28.6 24.5 79 2.8 E 32 37 17 20 1014.6 - 0.0
20/10:00am 28.2 27.8 24.0 78 2.9 E 33 39 18 21 1014.8 - 0.0
20/09:30am 28.4 28.1 24.2 78 2.9 E 33 41 18 22 1014.7 - 0.0
20/09:00am 27.6 26.1 23.4 78 2.9 E 37 44 20 24 1014.4 1014.4 0.0
20/08:30am 26.9 24.9 23.2 80 2.5 E 39 44 21 24 1014.2 - 0.0
20/08:00am 27.3 26.3 24.9 87 1.7 E 39 48 21 26 1014.2 - 0.0
20/07:30am 26.6 25.3 24.4 88 1.5 E 39 50 21 27 1013.6 - 0.0
20/07:00am 26.5 25.6 25.1 92 1.0 E 39 46 21 25 1013.5 - 0.0
20/06:30am 26.4 26.2 25.0 92 1.0 E 35 43 19 23 1013.2 - 0.0
20/06:00am 26.5 25.6 25.1 92 1.0 E 39 44 21 24 1013.0 1013.0 0.0
20/05:30am 26.7 25.8 25.1 91 1.1 ESE 39 46 21 25 1012.9 - 0.0
20/05:00am 26.5 26.0 25.1 92 1.0 ESE 37 46 20 25 1012.6 - 0.0
20/04:30am 26.3 25.4 25.1 93 0.8 E 39 46 21 25 1012.3 - 0.0
20/04:00am 26.9 27.0 26.0 95 0.6 E 37 44 20 24 1011.9 - 0.0
20/03:30am 26.5 25.7 25.3 93 0.8 E 39 46 21 25 1011.8 - 0.0
20/03:00am 27.0 26.9 25.8 93 0.8 E 37 43 20 23 1011.7 1011.7 0.0
20/02:30am 26.7 26.1 24.9 90 1.3 E 37 43 20 23 1012.1 - 0.0
20/02:00am 27.0 26.9 25.2 90 1.3 E 35 43 19 23 1012.2 - 0.0
20/01:30am 26.9 26.1 25.3 91 1.1 E 39 48 21 26 1012.1 - 0.0
20/01:00am 27.0 26.6 25.9 94 0.8 ENE 39 46 21 25 1012.1 - 0.0
20/12:30am 27.1 27.2 26.0 94 0.8 E 37 46 20 25 1012.7 - 0.0
20/12:00am 27.1 26.4 26.0 94 0.8 ENE 41 48 22 26 1012.9 1012.9 0.0
 
Date/Time
CST
Temp
°C
App
Temp
°C
Dew
Point
Rel
Hum
%
Delta-T
°C
Wind Press
QNH
hPa
Press
MSL
hPa
Rain
since 9 am
mm
Dir
 
Spd
km/h
Gust
km/h
Spd
kts
Gust
kts
19/11:30pm 26.9 27.3 26.0 95 0.6 E 35 43 19 23 1013.2 - 0.0
19/11:00pm 27.0 27.1 26.1 95 0.6 ENE 37 44 20 24 1013.3 - 0.0
19/10:30pm 27.0 27.6 26.3 96 0.5 ENE 35 41 19 22 1013.4 - 0.0
19/10:00pm 27.1 26.8 26.0 94 0.8 ENE 39 44 21 24 1013.0 - 0.0
19/09:30pm 27.1 27.3 26.2 95 0.6 ENE 37 43 20 23 1012.7 - 0.0
19/09:00pm 27.0 26.6 25.9 94 0.8 ENE 39 44 21 24 1012.5 1012.5 0.0
19/08:30pm 27.0 27.0 25.9 94 0.8 ENE 37 43 20 23 1012.1 - 0.0
19/08:00pm 27.3 27.6 26.4 95 0.6 ENE 37 41 20 22 1011.8 - 0.0
19/07:30pm 27.2 27.8 26.3 95 0.6 ENE 35 43 19 23 1011.4 - 0.0
19/07:00pm 27.4 28.4 26.3 94 0.8 ENE 33 39 18 21 1011.1 - 0.0
19/06:30pm 27.8 29.0 26.6 93 0.9 ENE 33 37 18 20 1011.0 - 0.0
19/06:00pm 27.7 28.7 26.3 92 1.0 ENE 33 39 18 21 1010.6 1010.6 0.0
19/05:30pm 27.6 28.4 26.0 91 1.1 ENE 33 37 18 20 1010.3 - 0.0
19/05:00pm 28.0 28.6 26.2 90 1.3 ENE 35 41 19 22 1010.4 - 0.0
19/04:30pm 28.5 30.1 27.1 92 1.0 E 33 39 18 21 1010.6 - 0.0
19/04:00pm 28.0 29.0 26.2 90 1.3 E 33 39 18 21 1010.8 - 0.0

Other Formats:

Comma delimited format used in spreadsheet applications
http://www.bom.gov.au/fwo/IDD60801/IDD60801.94135.axf

JavaScript Object Notation format (JSON) in row-major order
http://www.bom.gov.au/fwo/IDD60801/IDD60801.94135.json